Time;durP1;ratioP1;P1;durP2;ratioP2;P2;SDS_P1;SDS_P2;PMS_P1;PMS_P2;Temp;Humidity;BMP_temperature;BMP_pressure;BME280_temperature;BME280_humidity;BME280_pressure;Samples;Min_cycle;Max_cycle;Signal;HPM_P1;HPM_P2
2022/09/05 00:00:19;;;;;;;9.05;4.28;;;17.80;99.90;;;;;;5056166;28;20192;-54
2022/09/05 00:03:09;;;;;;;11.25;4.03;;;17.80;99.90;;;;;;5072948;28;20161;-55
2022/09/05 00:05:44;;;;;;;12.98;4.60;;;17.80;99.90;;;;;;5072074;28;20173;-55
2022/09/05 00:08:24;;;;;;;11.82;4.72;;;17.80;99.90;;;;;;5071872;28;20175;-54
2022/09/05 00:11:10;;;;;;;11.30;4.43;;;17.80;99.90;;;;;;5070629;28;20638;-54
2022/09/05 00:13:45;;;;;;;14.13;4.70;;;17.80;99.90;;;;;;5049540;28;20235;-54
2022/09/05 00:16:23;;;;;;;13.35;4.47;;;17.80;99.90;;;;;;5071716;28;20223;-54
2022/09/05 00:18:57;;;;;;;13.52;4.82;;;17.80;99.90;;;;;;5071670;28;20247;-54
2022/09/05 00:21:25;;;;;;;17.50;4.47;;;17.80;99.90;;;;;;5072155;28;20187;-53
2022/09/05 00:24:09;;;;;;;11.90;4.30;;;17.80;99.90;;;;;;5072229;28;20234;-53
2022/09/05 00:26:34;;;;;;;14.20;4.15;;;17.80;99.90;;;;;;5071224;28;20173;-53
2022/09/05 00:29:16;;;;;;;12.00;3.60;;;17.80;99.90;;;;;;5071805;28;20173;-53
2022/09/05 00:31:56;;;;;;;8.50;2.70;;;17.90;99.90;;;;;;5071468;28;20177;-54
2022/09/05 00:34:49;;;;;;;9.82;3.10;;;17.90;99.90;;;;;;5071021;28;20214;-54
2022/09/05 00:37:52;;;;;;;11.77;3.22;;;18.00;99.90;;;;;;5300508;22;20184;-54
2022/09/05 00:40:39;;;;;;;9.85;2.75;;;18.00;99.90;;;;;;5029625;23;20237;-54
2022/09/05 00:43:17;;;;;;;9.55;2.80;;;18.00;99.90;;;;;;5027875;28;20223;-54
2022/09/05 00:46:00;;;;;;;4.63;2.17;;;18.00;99.90;;;;;;5030299;28;20301;-57
2022/09/05 00:49:03;;;;;;;7.43;2.22;;;18.10;99.90;;;;;;5031417;28;20170;-54
2022/09/05 00:51:37;;;;;;;14.75;2.80;;;18.10;99.90;;;;;;5031641;28;20169;-54
2022/09/05 00:54:14;;;;;;;11.00;2.22;;;18.10;99.90;;;;;;5029619;28;20322;-54
2022/09/05 00:57:04;;;;;;;12.45;2.30;;;18.10;99.90;;;;;;5030605;28;20174;-54
2022/09/05 01:00:11;;;;;;;6.32;2.22;;;18.20;99.90;;;;;;5030425;28;20174;-54
2022/09/05 01:03:33;;;;;;;7.32;2.08;;;18.20;99.90;;;;;;5030355;28;20169;-55
2022/09/05 01:06:40;;;;;;;8.95;2.03;;;18.20;99.90;;;;;;4969319;28;20188;-54
2022/09/05 01:09:27;;;;;;;10.48;2.10;;;18.20;99.90;;;;;;4948017;28;20188;-54
2022/09/05 01:11:55;;;;;;;7.65;2.17;;;18.20;99.90;;;;;;5029626;28;20186;-54
2022/09/05 01:14:35;;;;;;;8.90;1.83;;;18.10;99.90;;;;;;5029585;28;20240;-54
2022/09/05 01:17:25;;;;;;;11.25;2.10;;;18.10;99.90;;;;;;5030834;28;20181;-55
2022/09/05 01:20:26;;;;;;;11.15;1.98;;;18.10;99.90;;;;;;5030533;28;20209;-55
2022/09/05 01:23:46;;;;;;;9.95;2.03;;;18.10;99.90;;;;;;5031298;28;20177;-54
2022/09/05 01:26:31;;;;;;;11.23;1.80;;;18.00;99.90;;;;;;4969383;28;20262;-55
2022/09/05 01:29:03;;;;;;;11.77;2.33;;;18.00;99.90;;;;;;5025642;28;20214;-55
2022/09/05 01:31:57;;;;;;;7.38;1.70;;;18.00;99.90;;;;;;5029824;28;20689;-54
2022/09/05 01:34:31;;;;;;;12.85;2.25;;;17.90;99.90;;;;;;5030367;28;20213;-54
2022/09/05 01:37:21;;;;;;;6.30;1.85;;;17.90;99.90;;;;;;5030522;28;20177;-54
2022/09/05 01:40:09;;;;;;;7.10;2.25;;;17.90;99.90;;;;;;5031028;28;20276;-54
2022/09/05 01:43:04;;;;;;;11.43;2.15;;;17.80;99.90;;;;;;5029655;28;20166;-54
2022/09/05 01:45:49;;;;;;;8.25;1.77;;;17.80;99.90;;;;;;5030406;28;20247;-55
2022/09/05 01:49:01;;;;;;;9.27;1.90;;;17.80;99.90;;;;;;5030648;28;20174;-54
2022/09/05 01:51:44;;;;;;;9.73;2.10;;;17.80;99.90;;;;;;5030734;28;20176;-55
2022/09/05 01:54:15;;;;;;;8.20;2.17;;;17.80;99.90;;;;;;5029487;28;20222;-54
2022/09/05 01:57:07;;;;;;;6.45;1.95;;;17.70;99.90;;;;;;5029923;28;20181;-55
2022/09/05 01:59:57;;;;;;;11.18;2.17;;;17.70;99.90;;;;;;5030868;28;20276;-55
2022/09/05 02:02:41;;;;;;;9.57;2.53;;;17.80;99.90;;;;;;5030095;28;20253;-54
2022/09/05 02:05:35;;;;;;;7.65;1.88;;;17.70;99.90;;;;;;5029886;28;20303;-54
2022/09/05 02:08:39;;;;;;;12.60;2.08;;;17.80;99.90;;;;;;5030663;28;20177;-54
2022/09/05 02:11:15;;;;;;;9.68;2.40;;;17.80;99.90;;;;;;5020594;28;20177;-54
2022/09/05 02:14:23;;;;;;;11.40;2.40;;;17.80;99.90;;;;;;5030570;28;20236;-54
2022/09/05 02:16:51;;;;;;;7.28;2.30;;;17.80;99.90;;;;;;5019202;28;20190;-54
2022/09/05 02:19:20;;;;;;;5.07;2.08;;;17.80;99.90;;;;;;5030500;28;20166;-54
2022/09/05 02:22:05;;;;;;;10.55;2.70;;;17.80;99.90;;;;;;5030274;28;20248;-54
2022/09/05 02:24:43;;;;;;;10.27;2.33;;;17.70;99.90;;;;;;5030574;28;20178;-54
2022/09/05 02:27:27;;;;;;;15.52;2.63;;;17.70;99.90;;;;;;5030561;28;20204;-54
2022/09/05 02:30:10;;;;;;;11.63;2.13;;;17.70;99.90;;;;;;5029146;28;20224;-54
2022/09/05 02:32:50;;;;;;;11.30;2.70;;;17.70;99.90;;;;;;5029648;28;20188;-54
2022/09/05 02:35:25;;;;;;;10.60;2.22;;;17.70;99.90;;;;;;5032724;28;20718;-54
2022/09/05 02:37:58;;;;;;;8.68;2.17;;;17.70;99.90;;;;;;5034051;28;20205;-55
2022/09/05 02:40:36;;;;;;;13.55;3.42;;;17.60;99.90;;;;;;5034132;28;20257;-54
2022/09/05 02:43:10;;;;;;;12.88;2.28;;;17.60;99.90;;;;;;5034271;28;20174;-56
2022/09/05 02:45:52;;;;;;;11.82;2.88;;;17.50;99.90;;;;;;5034036;28;20473;-56
2022/09/05 02:48:30;;;;;;;12.73;2.75;;;17.40;99.90;;;;;;5033300;28;20170;-55
2022/09/05 02:51:02;;;;;;;11.77;2.42;;;17.40;99.90;;;;;;5034552;28;20205;-56
2022/09/05 02:53:29;;;;;;;9.43;2.92;;;17.40;99.90;;;;;;5033286;28;20534;-56
2022/09/05 02:56:16;;;;;;;12.38;2.95;;;17.40;99.90;;;;;;5033204;28;20188;-56
2022/09/05 02:59:10;;;;;;;11.13;2.10;;;17.30;99.90;;;;;;5033945;28;20174;-56
2022/09/05 03:01:35;;;;;;;11.85;2.60;;;17.30;99.90;;;;;;5031439;28;20174;-56
2022/09/05 03:04:40;;;;;;;14.18;2.75;;;17.20;99.90;;;;;;5033016;28;20224;-56
2022/09/05 03:07:43;;;;;;;10.02;2.47;;;17.10;99.90;;;;;;5032942;28;20205;-54
2022/09/05 03:10:36;;;;;;;14.93;3.28;;;17.00;99.90;;;;;;5032546;28;20201;-55
2022/09/05 03:13:29;;;;;;;10.43;3.10;;;16.90;99.90;;;;;;5033356;28;20174;-53
2022/09/05 03:16:39;;;;;;;14.45;3.13;;;16.90;99.90;;;;;;5033014;28;20177;-54
2022/09/05 03:19:32;;;;;;;8.20;2.70;;;16.90;99.90;;;;;;5016913;28;20178;-54
2022/09/05 03:22:12;;;;;;;9.15;2.65;;;16.90;99.90;;;;;;5032314;28;20204;-55
2022/09/05 03:24:51;;;;;;;13.52;3.40;;;16.80;99.90;;;;;;5031341;28;20224;-54
2022/09/05 03:27:23;;;;;;;15.48;3.38;;;16.80;99.90;;;;;;5031707;28;20173;-54
2022/09/05 03:30:00;;;;;;;12.50;2.70;;;16.70;99.90;;;;;;5031560;28;20250;-55
2022/09/05 03:32:28;;;;;;;11.48;2.50;;;16.60;99.90;;;;;;5032455;28;20169;-54
2022/09/05 03:35:24;;;;;;;17.35;3.22;;;16.60;99.90;;;;;;5032589;28;20215;-55
2022/09/05 03:38:17;;;;;;;8.55;2.70;;;16.50;99.90;;;;;;5031371;28;20174;-55
2022/09/05 03:40:49;;;;;;;14.20;3.28;;;16.50;99.90;;;;;;5031734;28;20312;-55
2022/09/05 03:43:28;;;;;;;16.73;3.05;;;16.40;99.90;;;;;;5032115;28;20178;-55
2022/09/05 03:46:02;;;;;;;13.95;3.05;;;16.50;99.90;;;;;;5031038;28;20170;-55
2022/09/05 03:48:31;;;;;;;17.58;3.08;;;16.40;99.90;;;;;;5031899;28;20235;-55
2022/09/05 03:51:20;;;;;;;13.35;2.83;;;16.50;99.90;;;;;;5032780;28;20176;-55
2022/09/05 03:54:25;;;;;;;14.73;2.70;;;16.40;99.90;;;;;;5032487;28;20313;-55
2022/09/05 03:57:15;;;;;;;13.52;2.58;;;16.40;99.90;;;;;;5009269;28;20186;-55
2022/09/05 03:59:52;;;;;;;23.00;3.33;;;16.30;99.90;;;;;;5032563;28;20216;-56
2022/09/05 04:02:27;;;;;;;18.73;3.17;;;16.30;99.90;;;;;;5032391;28;20174;-54
2022/09/05 04:05:04;;;;;;;13.95;3.42;;;16.30;99.90;;;;;;5032588;28;20663;-54
2022/09/05 04:07:39;;;;;;;19.55;3.58;;;16.20;99.90;;;;;;5032738;28;20185;-54
2022/09/05 04:10:27;;;;;;;28.23;3.22;;;16.10;99.90;;;;;;5032756;28;20216;-54
2022/09/05 04:12:57;;;;;;;17.98;2.97;;;16.00;99.90;;;;;;5032029;28;20653;-54
2022/09/05 04:15:42;;;;;;;13.43;2.92;;;16.00;99.90;;;;;;5031944;28;20201;-54
2022/09/05 04:18:17;;;;;;;19.92;3.20;;;16.00;99.90;;;;;;5032102;28;20174;-54
2022/09/05 04:20:54;;;;;;;12.38;2.50;;;16.00;99.90;;;;;;5032597;28;20647;-54
2022/09/05 04:23:41;;;;;;;21.33;2.85;;;16.00;99.90;;;;;;5032318;28;20224;-53
2022/09/05 04:26:25;;;;;;;16.45;3.13;;;16.00;99.90;;;;;;5032334;28;20169;-54
2022/09/05 04:29:02;;;;;;;15.27;3.53;;;15.90;99.90;;;;;;5032417;28;20170;-54
2022/09/05 04:32:06;;;;;;;19.83;3.58;;;15.90;99.90;;;;;;5031680;28;20188;-54
2022/09/05 04:34:59;;;;;;;14.18;2.95;;;15.80;99.90;;;;;;4998147;28;20248;-54
2022/09/05 04:37:45;;;;;;;15.15;2.90;;;15.80;99.90;;;;;;5031241;28;20333;-54
2022/09/05 04:40:32;;;;;;;19.63;3.35;;;15.70;99.90;;;;;;5030987;28;20245;-54
2022/09/05 04:43:04;;;;;;;19.27;3.75;;;15.70;99.90;;;;;;5031856;28;20177;-54
2022/09/05 04:45:35;;;;;;;22.60;3.80;;;15.70;99.90;;;;;;5031057;28;20182;-54
2022/09/05 04:48:04;;;;;;;23.52;4.07;;;15.70;99.90;;;;;;5031200;28;20178;-54
2022/09/05 04:50:32;;;;;;;23.50;3.97;;;15.60;99.90;;;;;;5031926;28;20178;-54
2022/09/05 04:53:30;;;;;;;18.40;4.05;;;15.70;99.90;;;;;;5031398;28;20166;-54
2022/09/05 04:55:57;;;;;;;18.75;3.78;;;15.80;99.90;;;;;;5030861;28;20174;-54
2022/09/05 04:58:32;;;;;;;15.88;3.33;;;15.80;99.90;;;;;;5031239;28;20201;-54
2022/09/05 05:01:11;;;;;;;22.80;4.18;;;15.80;99.90;;;;;;5031763;28;20185;-54
2022/09/05 05:03:37;;;;;;;16.35;4.00;;;15.70;99.90;;;;;;5031661;28;20181;-54
2022/09/05 05:06:16;;;;;;;22.45;4.00;;;15.70;99.90;;;;;;5031689;28;20178;-54
2022/09/05 05:08:49;;;;;;;18.48;3.63;;;15.60;99.90;;;;;;5031585;28;20169;-54
2022/09/05 05:11:20;;;;;;;25.65;3.78;;;15.50;99.90;;;;;;5030847;28;20182;-53
2022/09/05 05:14:02;;;;;;;26.08;4.10;;;15.40;99.90;;;;;;5031233;28;20874;-53
2022/09/05 05:16:37;;;;;;;14.15;3.40;;;15.40;99.90;;;;;;5031218;28;20644;-53
2022/09/05 05:19:17;;;;;;;23.90;4.35;;;15.40;99.90;;;;;;5030940;28;20651;-53
2022/09/05 05:21:47;;;;;;;33.13;4.63;;;15.40;99.90;;;;;;5030417;28;20173;-56
2022/09/05 05:24:16;;;;;;;17.42;3.47;;;15.30;99.90;;;;;;5030473;28;20174;-55
2022/09/05 05:26:47;;;;;;;21.90;3.80;;;15.30;99.90;;;;;;5031331;28;20259;-55
2022/09/05 05:29:24;;;;;;;15.13;3.45;;;15.30;99.90;;;;;;5030251;28;20170;-55
2022/09/05 05:31:57;;;;;;;22.70;4.13;;;15.30;99.90;;;;;;5030226;28;20174;-56
2022/09/05 05:34:34;;;;;;;20.05;3.67;;;15.30;99.90;;;;;;5030499;28;20683;-55
2022/09/05 05:37:15;;;;;;;15.13;3.88;;;15.20;99.90;;;;;;5030398;28;20296;-56
2022/09/05 05:39:46;;;;;;;18.92;4.28;;;15.20;99.90;;;;;;5012346;28;20229;-56
2022/09/05 05:42:21;;;;;;;21.52;4.15;;;15.20;99.90;;;;;;5030058;28;20192;-56
2022/09/05 05:44:51;;;;;;;20.20;3.50;;;15.20;99.90;;;;;;5029750;28;20185;-56
2022/09/05 05:47:24;;;;;;;14.05;3.88;;;15.20;99.90;;;;;;5029716;28;20170;-56
2022/09/05 05:49:56;;;;;;;15.02;3.92;;;15.90;99.90;;;;;;5029371;28;20178;-55
2022/09/05 05:52:33;;;;;;;24.75;4.43;;;15.20;99.90;;;;;;5029631;28;20174;-55
2022/09/05 05:55:08;;;;;;;22.05;4.30;;;15.10;99.90;;;;;;5029293;28;20205;-55
2022/09/05 05:58:11;;;;;;;16.45;4.07;;;15.10;99.90;;;;;;5029573;28;20169;-55
2022/09/05 06:01:24;;;;;;;17.48;4.13;;;15.20;99.90;;;;;;5028571;28;20247;-54
2022/09/05 06:04:08;;;;;;;25.17;4.57;;;15.20;99.90;;;;;;5029586;28;20185;-54
2022/09/05 06:07:05;;;;;;;29.40;4.45;;;15.10;99.90;;;;;;5028905;28;20193;-54
2022/09/05 06:09:58;;;;;;;26.80;4.68;;;15.20;99.90;;;;;;5029351;28;20170;-55
2022/09/05 06:12:51;;;;;;;21.25;4.35;;;15.20;99.90;;;;;;5029861;28;20394;-55
2022/09/05 06:15:35;;;;;;;27.00;5.10;;;15.20;99.90;;;;;;5028640;28;20206;-55
2022/09/05 06:18:27;;;;;;;16.67;3.78;;;15.20;99.90;;;;;;5029604;28;20232;-55
2022/09/05 06:21:37;;;;;;;24.92;4.65;;;15.30;99.90;;;;;;4998654;28;20236;-53
2022/09/05 06:24:23;;;;;;;32.28;4.93;;;15.30;99.90;;;;;;5030351;28;20178;-54
2022/09/05 06:27:26;;;;;;;21.83;4.40;;;15.40;99.90;;;;;;5029306;28;20265;-54
2022/09/05 06:29:57;;;;;;;28.40;5.70;;;15.40;99.90;;;;;;5028637;28;20177;-55
2022/09/05 06:32:39;;;;;;;26.95;5.22;;;15.50;99.90;;;;;;5029552;28;20181;-55
2022/09/05 06:35:35;;;;;;;29.88;5.40;;;15.60;99.90;;;;;;5028887;28;20217;-54
2022/09/05 06:38:04;;;;;;;22.55;5.03;;;15.60;99.90;;;;;;5028314;28;20244;-55
2022/09/05 06:40:33;;;;;;;29.92;5.35;;;15.70;99.90;;;;;;5027862;28;20221;-54
2022/09/05 06:43:35;;;;;;;25.38;4.90;;;15.80;99.90;;;;;;5029553;28;20691;-53
2022/09/05 06:46:21;;;;;;;31.15;4.70;;;15.90;99.90;;;;;;5029283;28;20177;-55
2022/09/05 06:49:05;;;;;;;26.50;4.90;;;16.00;99.90;;;;;;5028721;28;20166;-54
2022/09/05 06:51:50;;;;;;;31.77;4.55;;;16.10;99.90;;;;;;5042595;28;20165;-56
2022/09/05 06:54:29;;;;;;;26.30;3.97;;;16.10;99.90;;;;;;5031132;28;20271;-54
2022/09/05 06:57:40;;;;;;;25.85;4.60;;;16.20;99.90;;;;;;5031506;28;20273;-55
2022/09/05 07:00:23;;;;;;;35.15;5.22;;;16.30;99.90;;;;;;5031698;28;20192;-54
2022/09/05 07:03:08;;;;;;;44.85;5.53;;;16.40;99.90;;;;;;5048829;28;20177;-54
2022/09/05 07:05:40;;;;;;;33.97;5.22;;;16.50;99.90;;;;;;5028839;28;20174;-55
2022/09/05 07:08:08;;;;;;;23.42;4.63;;;16.60;99.90;;;;;;5043921;28;20235;-54
2022/09/05 07:10:42;;;;;;;26.23;4.47;;;16.60;99.90;;;;;;5048094;28;20223;-55
2022/09/05 07:13:22;;;;;;;32.17;4.88;;;16.70;99.90;;;;;;5026043;28;20169;-55
2022/09/05 07:16:26;;;;;;;35.45;4.85;;;16.70;99.90;;;;;;5029095;28;20335;-53
2022/09/05 07:19:11;;;;;;;23.25;4.65;;;16.90;99.90;;;;;;4988504;28;20244;-54
2022/09/05 07:21:41;;;;;;;31.02;4.80;;;16.90;99.90;;;;;;5032435;28;20180;-54
2022/09/05 07:24:19;;;;;;;25.25;4.35;;;17.10;99.90;;;;;;5031004;28;20718;-54
2022/09/05 07:26:46;;;;;;;21.17;3.85;;;17.10;99.90;;;;;;5033407;28;20189;-54
2022/09/05 07:29:21;;;;;;;22.25;4.03;;;17.20;99.90;;;;;;5025115;28;20186;-54
2022/09/05 07:31:53;;;;;;;22.40;4.00;;;17.30;99.90;;;;;;5039696;28;20273;-54
2022/09/05 07:34:31;;;;;;;27.25;4.30;;;17.50;99.90;;;;;;5052898;28;20209;-54
2022/09/05 07:37:19;;;;;;;31.38;4.15;;;17.50;99.90;;;;;;5035684;28;20174;-54
2022/09/05 07:39:58;;;;;;;24.27;3.88;;;17.60;99.90;;;;;;5030544;28;20283;-54
2022/09/05 07:42:35;;;;;;;28.48;4.40;;;17.60;99.90;;;;;;5032402;28;20197;-58
2022/09/05 07:45:10;;;;;;;30.83;3.88;;;17.80;99.90;;;;;;5023778;28;20217;-55
2022/09/05 07:47:47;;;;;;;22.60;3.45;;;18.00;99.90;;;;;;5020893;28;20578;-53
2022/09/05 07:50:14;;;;;;;24.02;3.50;;;18.30;99.90;;;;;;5027678;28;20185;-53
2022/09/05 07:52:43;;;;;;;23.75;3.47;;;18.20;99.90;;;;;;5010852;28;20186;-53
2022/09/05 07:55:40;;;;;;;23.83;3.33;;;18.50;99.90;;;;;;5020502;28;20198;-55
2022/09/05 07:58:10;;;;;;;25.05;4.47;;;18.50;99.90;;;;;;5013036;28;20179;-55
2022/09/05 08:00:36;;;;;;;27.92;3.50;;;18.60;99.90;;;;;;5023445;28;20232;-57
2022/09/05 08:03:13;;;;;;;23.90;3.33;;;18.80;99.90;;;;;;5031122;28;20174;-56
2022/09/05 08:05:44;;;;;;;24.08;3.50;;;18.80;99.90;;;;;;5030464;28;20177;-57
2022/09/05 08:08:18;;;;;;;24.35;3.08;;;19.00;99.90;;;;;;5032669;28;20692;-56
2022/09/05 08:10:54;;;;;;;25.38;3.17;;;19.20;99.90;;;;;;5032739;28;20674;-56
2022/09/05 08:13:42;;;;;;;18.27;2.83;;;20.40;99.90;;;;;;5032480;28;20177;-56
2022/09/05 08:16:14;;;;;;;27.45;3.78;;;21.20;99.90;;;;;;5030129;28;20490;-57
2022/09/05 08:18:45;;;;;;;19.70;3.50;;;21.50;99.90;;;;;;5030594;28;20240;-57
2022/09/05 08:21:12;;;;;;;20.77;3.38;;;22.30;99.90;;;;;;5031696;28;20177;-58
2022/09/05 08:24:08;;;;;;;24.90;3.15;;;23.10;99.90;;;;;;5030830;28;20170;-55
2022/09/05 08:26:40;;;;;;;21.90;4.20;;;23.20;99.90;;;;;;5012296;28;20178;-55
2022/09/05 08:29:24;;;;;;;20.35;4.03;;;23.60;99.90;;;;;;5012159;28;20171;-56
2022/09/05 08:31:59;;;;;;;18.52;3.40;;;24.60;99.90;;;;;;5022191;28;20186;-58
2022/09/05 08:34:47;;;;;;;16.20;3.38;;;24.30;99.90;;;;;;5029889;28;20229;-58
2022/09/05 08:37:20;;;;;;;14.80;2.58;;;23.90;99.90;;;;;;5032099;28;20166;-57
2022/09/05 08:39:54;;;;;;;19.15;3.00;;;23.30;99.90;;;;;;5031110;28;20218;-57
2022/09/05 08:42:52;;;;;;;22.90;3.17;;;23.50;99.90;;;;;;5031853;28;20180;-57
2022/09/05 08:45:23;;;;;;;20.17;3.53;;;24.10;99.90;;;;;;5031775;28;20182;-55
2022/09/05 08:48:13;;;;;;;19.58;2.70;;;24.30;99.90;;;;;;5031074;28;20185;-56
2022/09/05 08:51:12;;;;;;;14.20;2.70;;;25.10;99.90;;;;;;5031841;28;20233;-58
2022/09/05 08:53:41;;;;;;;13.90;2.83;;;24.70;99.90;;;;;;5030955;28;20214;-56
2022/09/05 08:56:35;;;;;;;16.58;3.17;;;25.40;99.90;;;;;;5031872;28;20192;-58
2022/09/05 08:59:25;;;;;;;13.27;2.50;;;23.90;99.90;;;;;;5029929;28;20344;-55
2022/09/05 09:02:03;;;;;;;21.30;3.00;;;23.90;99.90;;;;;;5021719;28;20649;-57
2022/09/05 09:04:51;;;;;;;16.65;2.65;;;22.80;99.90;;;;;;5019009;28;20260;-56
2022/09/05 09:07:42;;;;;;;14.23;2.67;;;21.90;99.90;;;;;;5023252;28;20208;-57
2022/09/05 09:10:19;;;;;;;23.40;2.75;;;21.70;99.90;;;;;;5024179;28;20230;-56
2022/09/05 09:13:05;;;;;;;16.23;2.70;;;21.00;99.90;;;;;;5019521;28;20256;-55
2022/09/05 09:15:44;;;;;;;19.60;3.08;;;21.00;99.90;;;;;;5019566;28;20174;-57
2022/09/05 09:18:15;;;;;;;19.17;3.00;;;21.10;99.90;;;;;;5023384;28;20726;-56
2022/09/05 09:20:47;;;;;;;17.38;2.88;;;21.00;99.90;;;;;;5030755;28;20200;-57
2022/09/05 09:23:34;;;;;;;14.55;2.20;;;21.00;99.90;;;;;;5031458;28;20162;-56
2022/09/05 09:26:05;;;;;;;20.65;2.92;;;21.40;99.90;;;;;;5031443;28;20235;-57
2022/09/05 09:28:55;;;;;;;17.15;3.00;;;21.90;99.90;;;;;;5031228;28;20291;-57
2022/09/05 09:31:30;;;;;;;14.32;2.47;;;22.00;99.90;;;;;;5029315;28;20208;-56
2022/09/05 09:34:08;;;;;;;20.35;2.67;;;21.30;99.90;;;;;;5028918;28;20205;-58
2022/09/05 09:37:07;;;;;;;14.15;2.65;;;21.90;99.90;;;;;;5029836;28;20173;-56
2022/09/05 09:39:56;;;;;;;14.93;2.58;;;22.10;99.90;;;;;;5029741;28;20214;-57
2022/09/05 09:42:39;;;;;;;19.63;2.83;;;21.90;99.90;;;;;;4997395;28;20265;-57
2022/09/05 09:45:27;;;;;;;16.35;3.22;;;21.90;99.90;;;;;;5029457;28;20174;-55
2022/09/05 09:48:01;;;;;;;12.30;2.65;;;21.90;99.90;;;;;;5031052;28;20215;-57
2022/09/05 09:51:18;;;;;;;12.73;2.17;;;21.70;99.90;;;;;;5031063;28;20673;-56
2022/09/05 09:53:56;;;;;;;16.05;2.42;;;22.40;99.90;;;;;;5005123;28;20758;-57
2022/09/05 09:57:16;;;;;;;20.48;2.90;;;22.40;99.90;;;;;;5029778;28;20208;-56
2022/09/05 10:00:01;;;;;;;14.90;2.30;;;22.20;99.90;;;;;;4986497;28;20179;-57
2022/09/05 10:02:54;;;;;;;19.95;3.63;;;21.80;99.90;;;;;;5009147;28;20277;-56
2022/09/05 10:05:22;;;;;;;14.90;2.40;;;21.30;99.90;;;;;;5011241;28;20253;-56
2022/09/05 10:08:33;;;;;;;18.77;2.33;;;21.10;99.90;;;;;;5011208;28;20175;-57
2022/09/05 10:11:21;;;;;;;17.20;2.42;;;21.40;99.90;;;;;;5009750;28;20544;-57
2022/09/05 10:14:05;;;;;;;12.88;2.78;;;21.30;99.90;;;;;;5011046;28;20623;-57
2022/09/05 10:16:52;;;;;;;11.85;2.30;;;21.00;99.90;;;;;;5011059;28;20170;-56
2022/09/05 10:19:36;;;;;;;19.48;2.60;;;20.80;99.90;;;;;;5010916;28;20248;-56
2022/09/05 10:22:22;;;;;;;16.98;2.58;;;20.90;99.90;;;;;;5010880;28;20167;-56
2022/09/05 10:25:18;;;;;;;14.45;2.00;;;21.00;99.90;;;;;;5010725;28;20266;-56
2022/09/05 10:28:04;;;;;;;16.60;2.20;;;21.40;99.90;;;;;;5010663;28;20196;-55
2022/09/05 10:30:43;;;;;;;17.13;2.72;;;21.10;99.90;;;;;;5010699;28;20174;-56
2022/09/05 10:33:31;;;;;;;8.77;2.05;;;20.90;99.90;;;;;;5025891;28;20166;-56
2022/09/05 10:36:18;;;;;;;15.88;2.55;;;20.80;99.90;;;;;;5010690;28;20196;-56
2022/09/05 10:38:48;;;;;;;10.43;2.30;;;20.70;99.90;;;;;;5010625;28;20166;-56
2022/09/05 10:41:22;;;;;;;18.92;2.80;;;20.80;99.90;;;;;;5010745;28;20178;-56
2022/09/05 10:43:51;;;;;;;15.80;2.47;;;20.70;99.90;;;;;;5009510;28;20635;-57
2022/09/05 10:46:30;;;;;;;17.77;2.60;;;20.80;99.90;;;;;;5010655;28;20178;-56
2022/09/05 10:49:04;;;;;;;14.27;3.00;;;20.60;99.90;;;;;;5010854;28;20171;-56
2022/09/05 10:51:51;;;;;;;10.63;2.22;;;20.40;99.90;;;;;;5010926;28;20167;-57
2022/09/05 10:54:58;;;;;;;11.20;2.22;;;20.30;99.90;;;;;;5010502;28;20547;-56
2022/09/05 10:57:26;;;;;;;14.52;2.75;;;20.40;99.90;;;;;;5002273;28;20241;-56
2022/09/05 11:00:21;;;;;;;16.83;2.70;;;20.30;99.90;;;;;;5014196;28;20726;-56
2022/09/05 11:02:53;;;;;;;17.08;2.60;;;20.10;99.90;;;;;;5014220;28;20178;-56
2022/09/05 11:05:36;;;;;;;11.32;2.40;;;20.00;99.90;;;;;;5014288;28;20178;-56
2022/09/05 11:08:05;;;;;;;10.15;2.70;;;20.00;99.90;;;;;;5014338;28;20178;-55
2022/09/05 11:10:35;;;;;;;12.60;2.30;;;19.90;99.90;;;;;;5013898;28;20249;-56
2022/09/05 11:13:18;;;;;;;14.88;2.47;;;19.90;99.90;;;;;;5015816;28;20282;-56
2022/09/05 11:16:22;;;;;;;18.73;2.60;;;19.90;99.90;;;;;;5023498;28;20182;-58
2022/09/05 11:19:20;;;;;;;18.00;2.80;;;20.00;99.90;;;;;;5027616;28;20215;-57
2022/09/05 11:21:58;;;;;;;17.90;2.78;;;20.00;99.90;;;;;;5028187;28;20660;-56
2022/09/05 11:24:42;;;;;;;14.63;2.80;;;19.80;99.90;;;;;;5033500;28;20178;-56
2022/09/05 11:27:25;;;;;;;12.20;2.88;;;19.70;99.90;;;;;;5032371;28;20671;-56
2022/09/05 11:29:57;;;;;;;21.35;3.03;;;20.00;99.90;;;;;;5033289;28;20235;-58
2022/09/05 11:33:14;;;;;;;15.02;2.60;;;19.90;99.90;;;;;;5033421;28;20189;-58
2022/09/05 11:35:50;;;;;;;16.65;2.85;;;19.80;99.90;;;;;;5009082;28;20306;-58
2022/09/05 11:38:57;;;;;;;15.55;3.13;;;19.60;99.90;;;;;;5009919;28;20217;-57
2022/09/05 11:42:06;;;;;;;6.70;1.55;;;19.40;99.90;;;;;;5018763;28;20267;-57
2022/09/05 11:44:41;;;;;;;8.05;2.15;;;19.20;99.90;;;;;;5026951;28;20272;-57
2022/09/05 11:47:23;;;;;;;11.70;2.58;;;19.00;99.90;;;;;;5033006;28;20173;-57
2022/09/05 11:50:04;;;;;;;15.02;2.42;;;19.10;99.90;;;;;;5033074;28;20184;-58
2022/09/05 11:52:50;;;;;;;10.40;2.38;;;19.10;99.90;;;;;;5032599;28;20197;-57
2022/09/05 11:55:33;;;;;;;19.75;2.42;;;19.00;99.90;;;;;;5022687;28;20676;-57
2022/09/05 11:58:11;;;;;;;15.98;2.72;;;19.00;99.90;;;;;;5032808;28;20178;-57
2022/09/05 12:00:50;;;;;;;12.02;2.40;;;19.00;99.90;;;;;;5027994;28;20182;-57
2022/09/05 12:03:41;;;;;;;15.05;2.58;;;18.90;99.90;;;;;;5022851;28;20198;-57
2022/09/05 12:06:30;;;;;;;17.38;3.22;;;19.00;99.90;;;;;;5023527;28;20171;-57
2022/09/05 12:09:24;;;;;;;15.40;2.40;;;19.00;99.90;;;;;;5020369;28;20273;-57
2022/09/05 12:12:28;;;;;;;14.23;3.03;;;19.10;99.90;;;;;;5021191;28;20186;-56
2022/09/05 12:15:21;;;;;;;11.38;2.67;;;19.20;99.90;;;;;;5022733;28;20692;-56
2022/09/05 12:18:28;;;;;;;11.40;2.33;;;19.10;99.90;;;;;;5028099;28;20170;-56
2022/09/05 12:21:04;;;;;;;9.68;2.15;;;19.00;99.90;;;;;;5030905;28;20200;-57
2022/09/05 12:24:09;;;;;;;7.35;2.10;;;18.70;99.90;;;;;;5031956;28;20690;-57
2022/09/05 12:27:16;;;;;;;10.73;2.13;;;18.30;99.90;;;;;;5020494;28;20189;-56
2022/09/05 12:29:47;;;;;;;13.25;2.72;;;18.10;99.90;;;;;;5029925;28;20185;-57
2022/09/05 12:32:19;;;;;;;9.40;2.42;;;18.10;99.90;;;;;;5032151;28;20201;-56
2022/09/05 12:34:50;;;;;;;12.60;2.97;;;18.20;99.90;;;;;;5031709;28;20583;-56
2022/09/05 12:37:42;;;;;;;15.82;2.70;;;18.20;99.90;;;;;;5030682;28;20251;-56
2022/09/05 12:40:16;;;;;;;13.02;2.75;;;18.30;99.90;;;;;;5031730;28;20692;-56
2022/09/05 12:42:52;;;;;;;15.00;3.17;;;18.30;99.90;;;;;;5029506;28;20176;-56
2022/09/05 12:45:40;;;;;;;13.75;2.95;;;18.40;99.90;;;;;;5021426;28;20549;-56
2022/09/05 12:48:14;;;;;;;12.48;2.70;;;18.50;99.90;;;;;;5011012;28;20158;-57
2022/09/05 12:50:59;;;;;;;11.45;2.55;;;18.60;99.90;;;;;;5011132;28;20253;-57
2022/09/05 12:53:39;;;;;;;15.27;2.90;;;18.70;99.90;;;;;;5011437;28;20177;-56
2022/09/05 12:56:15;;;;;;;14.38;3.05;;;18.90;99.90;;;;;;5020426;28;20215;-56
2022/09/05 12:58:46;;;;;;;13.80;2.95;;;18.90;99.90;;;;;;5031156;28;20586;-57
2022/09/05 13:01:14;;;;;;;15.18;3.13;;;19.10;99.90;;;;;;5027560;28;20641;-56
2022/09/05 13:04:02;;;;;;;9.80;2.78;;;19.20;99.90;;;;;;5030580;28;20656;-55
2022/09/05 13:06:34;;;;;;;16.27;3.80;;;19.30;99.90;;;;;;5030593;28;20170;-56
2022/09/05 13:09:51;;;;;;;13.68;3.50;;;19.60;99.90;;;;;;5029144;28;20706;-56
2022/09/05 13:12:28;;;;;;;10.32;3.35;;;19.90;99.90;;;;;;5020835;28;20196;-56
2022/09/05 13:15:07;;;;;;;11.32;2.85;;;20.30;99.90;;;;;;5015819;28;20221;-56
2022/09/05 13:17:47;;;;;;;10.07;3.05;;;20.40;99.90;;;;;;5011775;28;20182;-56
2022/09/05 13:20:38;;;;;;;12.05;3.15;;;20.50;99.90;;;;;;5031169;28;20188;-56
2022/09/05 13:23:34;;;;;;;6.15;2.40;;;20.90;99.90;;;;;;5029226;28;20174;-56
2022/09/05 13:26:04;;;;;;;10.23;3.03;;;21.50;99.90;;;;;;5025264;28;20364;-56
2022/09/05 13:29:01;;;;;;;7.55;2.25;;;22.30;99.90;;;;;;5031273;28;20169;-57
2022/09/05 13:32:00;;;;;;;11.00;2.30;;;22.20;99.90;;;;;;5031377;28;20213;-57
2022/09/05 13:34:35;;;;;;;7.47;2.53;;;22.00;99.90;;;;;;5027240;28;20217;-56
2022/09/05 13:37:19;;;;;;;9.23;2.35;;;22.60;99.90;;;;;;5021169;28;20271;-56
2022/09/05 13:39:55;;;;;;;5.55;2.05;;;22.40;99.90;;;;;;5011315;28;20254;-57
2022/09/05 13:42:24;;;;;;;5.90;1.70;;;21.90;99.90;;;;;;5011443;28;20178;-57
2022/09/05 13:44:56;;;;;;;8.98;2.65;;;22.30;99.90;;;;;;5011162;28;20221;-56
2022/09/05 13:47:53;;;;;;;7.65;2.00;;;22.60;99.90;;;;;;5011187;28;20167;-56
2022/09/05 13:50:45;;;;;;;4.95;1.73;;;22.70;99.90;;;;;;5011140;28;20205;-58
2022/09/05 13:53:17;;;;;;;6.15;1.63;;;23.10;99.90;;;;;;5007995;28;20188;-57
2022/09/05 13:55:52;;;;;;;6.20;2.42;;;23.40;99.90;;;;;;5011077;28;20179;-57
2022/09/05 13:58:41;;;;;;;5.03;1.58;;;23.20;99.90;;;;;;5011142;28;20178;-57